Time;durP1;ratioP1;P1;durP2;ratioP2;P2;SDS_P1;SDS_P2;PMS_P1;PMS_P2;Temp;Humidity;BMP_temperature;BMP_pressure;BME280_temperature;BME280_humidity;BME280_pressure;Samples;Min_cycle;Max_cycle;Signal;HPM_P1;HPM_P2
2022/01/25 00:08:24;;;;;;;0.28;0.28;;;;;;;;;;5112866;28;20127;-85
2022/01/25 00:32:11;;;;;;;0.10;0.10;;;;;;;;;;5113723;28;20078;-84
2022/01/25 00:34:38;;;;;;;0.60;0.60;;;;;;;;;;5113490;28;20067;-85
2022/01/25 00:37:04;;;;;;;0.10;0.10;;;;;;;;;;5095103;28;20039;-84
2022/01/25 00:39:30;;;;;;;0.10;0.10;;;;;;;;;;5095201;28;20054;-84
2022/01/25 00:41:56;;;;;;;0.10;0.10;;;;;;;;;;5078179;28;20040;-84
2022/01/25 00:44:22;;;;;;;0.10;0.10;;;;;;;;;;5111617;28;20569;-84
2022/01/25 00:46:48;;;;;;;0.10;0.10;;;;;;;;;;5111854;28;20446;-84
2022/01/25 00:49:24;;;;;;;0.10;0.10;;;;;;;;;;5078068;28;20148;-84
2022/01/25 00:56:48;;;;;;;0.10;0.10;;;;;;;;;;5112008;28;20043;-84
2022/01/25 00:59:15;;;;;;;0.10;0.10;;;;;;;;;;5094828;28;20124;-84
2022/01/25 01:01:41;;;;;;;0.30;0.30;;;;;;;;;;5094786;28;20044;-84
2022/01/25 01:04:07;;;;;;;0.10;0.10;;;;;;;;;;5111433;28;20043;-84
2022/01/25 01:06:34;;;;;;;0.10;0.10;;;;;;;;;;5094782;28;20363;-84
2022/01/25 01:09:00;;;;;;;0.40;0.40;;;;;;;;;;5094530;28;20047;-84
2022/01/25 01:11:32;;;;;;;0.10;0.10;;;;;;;;;;5094426;28;20065;-84
2022/01/25 01:14:19;;;;;;;;;;;;;;;;;;5095124;28;20039;-84
2022/01/25 01:30:39;;;;;;;0.10;0.10;;;;;;;;;;5111044;28;20048;-84
2022/01/25 01:43:36;;;;;;;0.05;0.05;;;;;;;;;;5113965;27;20104;-83
2022/01/25 01:49:02;;;;;;;0.10;0.10;;;;;;;;;;5115807;28;20093;-84
2022/01/25 01:51:31;;;;;;;0.10;0.10;;;;;;;;;;5097162;28;20035;-84
2022/01/25 01:53:59;;;;;;;0.00;0.00;;;;;;;;;;5080632;28;20120;-84
2022/01/25 01:56:25;;;;;;;0.10;0.10;;;;;;;;;;5097390;28;20075;-84
2022/01/25 01:58:52;;;;;;;0.10;0.10;;;;;;;;;;5113999;28;20477;-84
2022/01/25 02:01:18;;;;;;;0.10;0.10;;;;;;;;;;5097571;28;20131;-84
2022/01/25 02:03:44;;;;;;;0.10;0.10;;;;;;;;;;5114062;28;20071;-84
2022/01/25 02:06:10;;;;;;;0.10;0.10;;;;;;;;;;5114187;28;20098;-84
2022/01/25 02:08:36;;;;;;;0.10;0.10;;;;;;;;;;5097162;28;20047;-84
2022/01/25 02:11:03;;;;;;;0.10;0.10;;;;;;;;;;5097142;28;20058;-84
2022/01/25 02:13:29;;;;;;;0.20;0.20;;;;;;;;;;5113892;28;20149;-84
2022/01/25 02:15:57;;;;;;;0.10;0.10;;;;;;;;;;5113955;28;20043;-84
2022/01/25 02:23:37;;;;;;;0.10;0.10;;;;;;;;;;5113765;28;20035;-85
2022/01/25 02:26:03;;;;;;;0.10;0.10;;;;;;;;;;5114609;27;20039;-85
2022/01/25 02:28:31;;;;;;;0.13;0.13;;;;;;;;;;5118115;27;20112;-85
2022/01/25 02:30:57;;;;;;;0.00;0.00;;;;;;;;;;5100939;27;20039;-84
2022/01/25 02:33:23;;;;;;;0.38;0.32;;;;;;;;;;5117829;27;20173;-84
2022/01/25 02:35:49;;;;;;;0.10;0.10;;;;;;;;;;5100942;27;20087;-85
2022/01/25 02:38:15;;;;;;;0.03;0.03;;;;;;;;;;5117655;27;20096;-84
2022/01/25 02:40:41;;;;;;;0.10;0.10;;;;;;;;;;5100813;27;20035;-84
2022/01/25 02:43:07;;;;;;;0.10;0.10;;;;;;;;;;5100744;27;20039;-84
2022/01/25 02:45:35;;;;;;;0.10;0.10;;;;;;;;;;5135655;27;20127;-85
2022/01/25 02:50:46;;;;;;;0.00;0.00;;;;;;;;;;5135796;27;20043;-83
2022/01/25 02:53:11;;;;;;;0.05;0.05;;;;;;;;;;5117262;27;20064;-84
2022/01/25 02:55:40;;;;;;;0.10;0.10;;;;;;;;;;5100547;27;20122;-83
2022/01/25 02:58:07;;;;;;;0.10;0.10;;;;;;;;;;5117240;27;20053;-83
2022/01/25 03:00:33;;;;;;;0.10;0.10;;;;;;;;;;5083507;27;20043;-83
2022/01/25 03:02:59;;;;;;;0.10;0.10;;;;;;;;;;5100080;27;20378;-83
2022/01/25 03:05:25;;;;;;;0.10;0.10;;;;;;;;;;5116854;27;20044;-84
2022/01/25 03:07:51;;;;;;;0.30;0.30;;;;;;;;;;5117709;27;20035;-84
2022/01/25 03:10:17;;;;;;;0.43;0.30;;;;;;;;;;5117041;27;20051;-84
2022/01/25 03:12:51;;;;;;;0.10;0.10;;;;;;;;;;5100045;27;20043;-83
2022/01/25 03:17:58;;;;;;;0.00;0.00;;;;;;;;;;5116632;27;20092;-83
2022/01/25 03:23:18;;;;;;;0.03;0.03;;;;;;;;;;5102283;27;20043;-83
2022/01/25 03:25:44;;;;;;;0.10;0.10;;;;;;;;;;5101417;27;20039;-83
2022/01/25 03:28:10;;;;;;;0.10;0.10;;;;;;;;;;5099771;27;20042;-84
2022/01/25 03:30:36;;;;;;;0.10;0.10;;;;;;;;;;5116481;27;20494;-83
2022/01/25 03:33:02;;;;;;;0.10;0.10;;;;;;;;;;5116833;27;20047;-83
2022/01/25 03:35:28;;;;;;;0.60;0.17;;;;;;;;;;5099550;27;20054;-83
2022/01/25 03:37:54;;;;;;;0.10;0.10;;;;;;;;;;5116132;27;20414;-84
2022/01/25 03:40:20;;;;;;;0.10;0.10;;;;;;;;;;5116525;27;20039;-84
2022/01/25 03:42:48;;;;;;;0.10;0.10;;;;;;;;;;5116367;27;20035;-84
2022/01/25 03:45:19;;;;;;;0.10;0.10;;;;;;;;;;5095676;28;20083;-84
2022/01/25 03:47:58;;;;;;;0.10;0.10;;;;;;;;;;5096991;28;20043;-84
2022/01/25 03:50:24;;;;;;;0.47;0.20;;;;;;;;;;5098258;28;20032;-84
2022/01/25 03:52:50;;;;;;;0.38;0.20;;;;;;;;;;5096110;28;20042;-84
2022/01/25 03:55:16;;;;;;;0.10;0.10;;;;;;;;;;5095984;28;20123;-84
2022/01/25 03:57:42;;;;;;;0.32;0.32;;;;;;;;;;5078899;28;20046;-83
2022/01/25 04:00:10;;;;;;;0.55;0.20;;;;;;;;;;5095771;28;20039;-84
2022/01/25 04:02:39;;;;;;;0.10;0.10;;;;;;;;;;5112628;28;20054;-84
2022/01/25 04:05:08;;;;;;;0.10;0.10;;;;;;;;;;5079218;28;20122;-84
2022/01/25 04:07:45;;;;;;;0.17;0.17;;;;;;;;;;5112599;28;20396;-84
2022/01/25 04:10:13;;;;;;;0.10;0.10;;;;;;;;;;5113691;28;20118;-84
2022/01/25 04:12:39;;;;;;;0.20;0.20;;;;;;;;;;5078814;28;20043;-84
2022/01/25 04:15:05;;;;;;;0.10;0.10;;;;;;;;;;5112387;28;20097;-84
2022/01/25 04:17:33;;;;;;;0.00;0.00;;;;;;;;;;5095806;28;20047;-83
2022/01/25 04:25:38;;;;;;;0.10;0.10;;;;;;;;;;5112669;28;20130;-84
2022/01/25 04:28:04;;;;;;;0.10;0.10;;;;;;;;;;5112416;28;20075;-84
2022/01/25 04:30:31;;;;;;;0.05;0.05;;;;;;;;;;5112292;28;20031;-84
2022/01/25 04:33:17;;;;;;;0.10;0.10;;;;;;;;;;5078294;28;20028;-84
2022/01/25 04:36:49;;;;;;;0.10;0.10;;;;;;;;;;5113542;28;20044;-84
2022/01/25 04:49:50;;;;;;;0.10;0.10;;;;;;;;;;5096744;28;20048;-84
2022/01/25 04:52:19;;;;;;;0.17;0.17;;;;;;;;;;5111688;28;20053;-84
2022/01/25 04:55:06;;;;;;;0.10;0.10;;;;;;;;;;5111726;28;20067;-84
2022/01/25 04:57:50;;;;;;;0.10;0.10;;;;;;;;;;5111390;28;20048;-85
2022/01/25 05:00:20;;;;;;;0.10;0.10;;;;;;;;;;5111773;28;20096;-84
2022/01/25 05:05:31;;;;;;;0.10;0.10;;;;;;;;;;5095484;28;20047;-84
2022/01/25 05:10:28;;;;;;;0.55;0.55;;;;;;;;;;5111520;28;20131;-84
2022/01/25 05:13:13;;;;;;;0.43;0.43;;;;;;;;;;5078009;28;20084;-84
2022/01/25 05:23:21;;;;;;;0.32;0.30;;;;;;;;;;5096810;28;20047;-84
2022/01/25 05:25:47;;;;;;;0.20;0.20;;;;;;;;;;5111199;28;20097;-84
2022/01/25 05:28:13;;;;;;;0.10;0.10;;;;;;;;;;5111168;28;20047;-84
2022/01/25 05:30:39;;;;;;;0.10;0.10;;;;;;;;;;5094427;28;20039;-84
2022/01/25 05:33:05;;;;;;;0.35;0.20;;;;;;;;;;5094522;28;20042;-84
2022/01/25 05:35:31;;;;;;;0.08;0.08;;;;;;;;;;5094398;28;20070;-84
2022/01/25 05:37:57;;;;;;;0.10;0.10;;;;;;;;;;5094319;28;20485;-84
2022/01/25 05:40:59;;;;;;;0.10;0.10;;;;;;;;;;5094212;28;20047;-84
2022/01/25 05:48:10;;;;;;;0.00;0.00;;;;;;;;;;5114290;28;20043;-84
2022/01/25 05:50:36;;;;;;;0.10;0.10;;;;;;;;;;5114640;28;20042;-85
2022/01/25 05:53:03;;;;;;;0.10;0.10;;;;;;;;;;5097550;28;20051;-85
2022/01/25 05:55:29;;;;;;;0.10;0.10;;;;;;;;;;5097575;28;20039;-84
2022/01/25 05:57:54;;;;;;;0.10;0.10;;;;;;;;;;5114292;28;20080;-84
2022/01/25 06:00:20;;;;;;;0.10;0.10;;;;;;;;;;5098686;27;20043;-85
2022/01/25 06:02:47;;;;;;;0.22;0.22;;;;;;;;;;5101453;27;20282;-85
2022/01/25 06:05:13;;;;;;;0.10;0.10;;;;;;;;;;5101307;27;20039;-84
2022/01/25 06:07:39;;;;;;;0.20;0.20;;;;;;;;;;5084562;27;20542;-84
2022/01/25 06:10:06;;;;;;;0.20;0.20;;;;;;;;;;5118387;27;20051;-84
2022/01/25 06:12:32;;;;;;;0.10;0.10;;;;;;;;;;5118493;27;20343;-85
2022/01/25 06:14:58;;;;;;;0.10;0.10;;;;;;;;;;5118328;27;20039;-84
2022/01/25 06:17:24;;;;;;;0.10;0.10;;;;;;;;;;5101068;27;20390;-84
2022/01/25 06:19:52;;;;;;;0.20;0.20;;;;;;;;;;5101026;27;20104;-84
2022/01/25 06:22:19;;;;;;;0.10;0.10;;;;;;;;;;5118092;27;20287;-84
2022/01/25 06:24:44;;;;;;;0.10;0.10;;;;;;;;;;5117958;27;20097;-84
2022/01/25 06:27:11;;;;;;;0.05;0.05;;;;;;;;;;5101016;27;20039;-84
2022/01/25 06:29:36;;;;;;;0.10;0.10;;;;;;;;;;5136200;27;20063;-85
2022/01/25 06:32:03;;;;;;;0.10;0.10;;;;;;;;;;5084094;27;20519;-84
2022/01/25 06:34:29;;;;;;;0.10;0.10;;;;;;;;;;5101368;27;20046;-84
2022/01/25 06:36:55;;;;;;;0.10;0.10;;;;;;;;;;5117638;27;20509;-84
2022/01/25 06:39:21;;;;;;;0.10;0.10;;;;;;;;;;5117733;27;20050;-84
2022/01/25 06:41:47;;;;;;;0.55;0.28;;;;;;;;;;5100737;27;20035;-84
2022/01/25 06:44:13;;;;;;;0.10;0.10;;;;;;;;;;5117259;27;20059;-84
2022/01/25 06:46:39;;;;;;;0.10;0.10;;;;;;;;;;5100761;27;20047;-84
2022/01/25 06:49:05;;;;;;;0.10;0.10;;;;;;;;;;5117744;27;20176;-84
2022/01/25 06:51:31;;;;;;;0.38;0.38;;;;;;;;;;5117887;27;20422;-84
2022/01/25 06:53:57;;;;;;;0.10;0.10;;;;;;;;;;5117350;27;20083;-84
2022/01/25 06:56:23;;;;;;;0.10;0.10;;;;;;;;;;5100500;27;20043;-84
2022/01/25 06:58:49;;;;;;;0.10;0.10;;;;;;;;;;5100506;27;20039;-85
2022/01/25 07:01:17;;;;;;;0.10;0.10;;;;;;;;;;5083396;27;20493;-84
2022/01/25 07:03:43;;;;;;;0.10;0.10;;;;;;;;;;5100456;27;20107;-84
2022/01/25 07:06:09;;;;;;;0.10;0.10;;;;;;;;;;5100245;27;20091;-85
2022/01/25 07:08:35;;;;;;;0.10;0.10;;;;;;;;;;5117217;27;20035;-84
2022/01/25 07:11:01;;;;;;;0.03;0.03;;;;;;;;;;5100471;27;20500;-84
2022/01/25 07:13:27;;;;;;;0.20;0.20;;;;;;;;;;5116093;27;20043;-84
2022/01/25 07:15:53;;;;;;;0.03;0.03;;;;;;;;;;5117037;27;20078;-84
2022/01/25 07:18:19;;;;;;;0.20;0.20;;;;;;;;;;5135253;27;20046;-83
2022/01/25 07:20:45;;;;;;;0.10;0.10;;;;;;;;;;5100212;27;20438;-82
2022/01/25 07:23:11;;;;;;;0.10;0.10;;;;;;;;;;5099805;27;20386;-84
2022/01/25 07:25:37;;;;;;;0.15;0.15;;;;;;;;;;5099916;27;20447;-83
2022/01/25 07:28:03;;;;;;;0.10;0.10;;;;;;;;;;5083722;27;20039;-85
2022/01/25 07:30:29;;;;;;;0.10;0.10;;;;;;;;;;5083066;27;20073;-84
2022/01/25 07:32:55;;;;;;;0.10;0.10;;;;;;;;;;5100063;27;20424;-84
2022/01/25 07:35:21;;;;;;;0.10;0.10;;;;;;;;;;5100102;27;20403;-85
2022/01/25 07:37:47;;;;;;;0.10;0.10;;;;;;;;;;5099856;27;20155;-86
2022/01/25 07:40:13;;;;;;;0.10;0.10;;;;;;;;;;5099595;27;20039;-85
2022/01/25 07:42:40;;;;;;;0.32;0.30;;;;;;;;;;5099656;27;20401;-84
2022/01/25 07:45:09;;;;;;;0.98;0.25;;;;;;;;;;5099655;27;20516;-84
2022/01/25 07:47:36;;;;;;;0.10;0.10;;;;;;;;;;5099476;27;20046;-84
2022/01/25 07:50:02;;;;;;;0.10;0.10;;;;;;;;;;5099427;27;20039;-84
2022/01/25 07:52:28;;;;;;;0.10;0.10;;;;;;;;;;5099244;27;20050;-83
2022/01/25 07:54:54;;;;;;;0.10;0.10;;;;;;;;;;5082311;27;20042;-84
2022/01/25 07:57:20;;;;;;;0.10;0.10;;;;;;;;;;5099487;27;20047;-85
2022/01/25 07:59:46;;;;;;;0.10;0.10;;;;;;;;;;5116424;27;20047;-84
2022/01/25 08:02:17;;;;;;;0.20;0.20;;;;;;;;;;5082584;27;20046;-84
2022/01/25 08:04:43;;;;;;;0.10;0.10;;;;;;;;;;5116090;27;20039;-84
2022/01/25 08:07:09;;;;;;;0.40;0.40;;;;;;;;;;5116141;27;20043;-86
2022/01/25 08:09:35;;;;;;;0.10;0.10;;;;;;;;;;5099123;27;20035;-86
2022/01/25 08:12:01;;;;;;;0.10;0.10;;;;;;;;;;5099013;27;20407;-86
2022/01/25 08:14:27;;;;;;;0.10;0.10;;;;;;;;;;5115837;27;20476;-86
2022/01/25 08:16:53;;;;;;;0.10;0.10;;;;;;;;;;5115814;27;20039;-87
2022/01/25 08:19:19;;;;;;;0.10;0.10;;;;;;;;;;5098885;27;20047;-84
2022/01/25 08:21:45;;;;;;;0.10;0.10;;;;;;;;;;5081851;27;20039;-83
2022/01/25 08:24:11;;;;;;;0.10;0.10;;;;;;;;;;5114387;27;20169;-84
2022/01/25 08:26:37;;;;;;;0.03;0.03;;;;;;;;;;5098897;27;20043;-83
2022/01/25 08:29:04;;;;;;;0.10;0.10;;;;;;;;;;5115869;27;20039;-89
2022/01/25 08:31:29;;;;;;;0.00;0.00;;;;;;;;;;5098921;27;20420;-87
2022/01/25 08:33:56;;;;;;;0.10;0.10;;;;;;;;;;5098684;27;20095;-86
2022/01/25 08:36:22;;;;;;;0.10;0.10;;;;;;;;;;5081852;27;20143;-87
2022/01/25 08:38:48;;;;;;;0.17;0.17;;;;;;;;;;5115373;27;20075;-87
2022/01/25 08:41:14;;;;;;;0.10;0.10;;;;;;;;;;5098642;27;20354;-86
2022/01/25 08:43:40;;;;;;;0.10;0.10;;;;;;;;;;5098179;27;20069;-87
2022/01/25 08:46:06;;;;;;;0.10;0.10;;;;;;;;;;5099108;27;20081;-88
2022/01/25 08:48:32;;;;;;;0.38;0.20;;;;;;;;;;5115311;27;20370;-85
2022/01/25 08:50:58;;;;;;;0.10;0.10;;;;;;;;;;5098466;27;20111;-87
2022/01/25 08:53:24;;;;;;;0.10;0.10;;;;;;;;;;5098338;27;20039;-87
2022/01/25 08:55:50;;;;;;;0.10;0.10;;;;;;;;;;5098285;27;20409;-86
2022/01/25 08:58:16;;;;;;;0.10;0.10;;;;;;;;;;5098089;27;20047;-86
2022/01/25 09:00:42;;;;;;;0.00;0.00;;;;;;;;;;5098047;27;20481;-86
2022/01/25 09:03:08;;;;;;;0.10;0.10;;;;;;;;;;5081385;27;20375;-86
2022/01/25 09:05:35;;;;;;;0.10;0.10;;;;;;;;;;5098030;27;20035;-87
2022/01/25 09:08:01;;;;;;;0.00;0.00;;;;;;;;;;5115128;27;20039;-86
2022/01/25 09:10:27;;;;;;;0.10;0.10;;;;;;;;;;5098231;27;20039;-85
2022/01/25 09:12:54;;;;;;;0.10;0.10;;;;;;;;;;5080971;27;20035;-85
2022/01/25 09:15:20;;;;;;;0.10;0.10;;;;;;;;;;5081349;27;20046;-87
2022/01/25 09:17:46;;;;;;;0.45;0.45;;;;;;;;;;5097699;27;20062;-84
2022/01/25 09:20:12;;;;;;;0.10;0.10;;;;;;;;;;5114848;27;20043;-84
2022/01/25 09:22:38;;;;;;;0.10;0.10;;;;;;;;;;5114605;27;20075;-85
2022/01/25 09:25:05;;;;;;;0.10;0.10;;;;;;;;;;5097609;27;20077;-84
2022/01/25 09:27:31;;;;;;;0.10;0.10;;;;;;;;;;5114469;27;20039;-84
2022/01/25 09:29:57;;;;;;;0.10;0.10;;;;;;;;;;5114503;27;20046;-85
2022/01/25 09:32:23;;;;;;;0.10;0.10;;;;;;;;;;5080684;27;20035;-84
2022/01/25 09:34:49;;;;;;;0.10;0.10;;;;;;;;;;5114173;27;20050;-83
2022/01/25 09:37:15;;;;;;;0.10;0.10;;;;;;;;;;5114569;27;20039;-84
2022/01/25 09:39:41;;;;;;;0.10;0.10;;;;;;;;;;5080777;27;20046;-85
2022/01/25 09:42:09;;;;;;;0.10;0.10;;;;;;;;;;5097361;27;20039;-85
2022/01/25 09:44:36;;;;;;;0.10;0.10;;;;;;;;;;5097275;27;20090;-83
2022/01/25 09:47:03;;;;;;;0.10;0.10;;;;;;;;;;5097407;28;20043;-84
2022/01/25 09:49:29;;;;;;;0.00;0.00;;;;;;;;;;5114237;28;20043;-85
2022/01/25 09:51:55;;;;;;;0.10;0.10;;;;;;;;;;5114362;28;20043;-84
2022/01/25 09:54:21;;;;;;;0.10;0.10;;;;;;;;;;5114173;28;20043;-84
2022/01/25 09:56:47;;;;;;;0.10;0.10;;;;;;;;;;5080409;28;20050;-84
2022/01/25 09:59:13;;;;;;;0.10;0.10;;;;;;;;;;5097565;28;20050;-85
2022/01/25 10:01:39;;;;;;;0.75;0.35;;;;;;;;;;5114091;28;20074;-85
2022/01/25 10:04:24;;;;;;;0.10;0.10;;;;;;;;;;5097212;28;20039;-86
2022/01/25 10:06:50;;;;;;;0.10;0.10;;;;;;;;;;5080931;28;20435;-87
2022/01/25 10:09:16;;;;;;;0.10;0.10;;;;;;;;;;5097520;28;20172;-88
2022/01/25 10:11:42;;;;;;;0.15;0.15;;;;;;;;;;5114571;28;20160;-87
2022/01/25 10:14:08;;;;;;;0.10;0.10;;;;;;;;;;5097243;28;20039;-87
2022/01/25 10:16:35;;;;;;;0.10;0.10;;;;;;;;;;5097333;28;20039;-89
2022/01/25 10:19:02;;;;;;;0.10;0.10;;;;;;;;;;5080776;28;20366;-88
2022/01/25 10:21:32;;;;;;;0.25;0.25;;;;;;;;;;5097136;28;20092;-90
2022/01/25 10:24:18;;;;;;;0.10;0.10;;;;;;;;;;5096882;28;20040;-90
2022/01/25 10:26:47;;;;;;;0.10;0.10;;;;;;;;;;5097111;28;20039;-90
2022/01/25 10:29:37;;;;;;;0.10;0.10;;;;;;;;;;5097204;28;20039;-89
2022/01/25 10:32:07;;;;;;;0.03;0.03;;;;;;;;;;5140253;27;20051;-88
2022/01/25 10:34:34;;;;;;;0.10;0.10;;;;;;;;;;5096977;28;20039;-87
2022/01/25 10:37:00;;;;;;;0.50;0.17;;;;;;;;;;5097224;28;20045;-86
2022/01/25 10:39:27;;;;;;;0.05;0.05;;;;;;;;;;5096908;28;20123;-85
2022/01/25 10:42:01;;;;;;;0.10;0.10;;;;;;;;;;5132091;28;20058;-85
2022/01/25 10:44:27;;;;;;;0.10;0.10;;;;;;;;;;5096977;28;20569;-91
2022/01/25 10:46:53;;;;;;;0.98;0.20;;;;;;;;;;5097686;27;20120;-87
2022/01/25 10:49:20;;;;;;;0.52;0.20;;;;;;;;;;5117446;27;20047;-87
2022/01/25 10:51:47;;;;;;;0.10;0.10;;;;;;;;;;5100347;27;20049;-87
2022/01/25 10:54:16;;;;;;;0.10;0.10;;;;;;;;;;5100811;27;20039;-87
2022/01/25 10:56:42;;;;;;;0.10;0.10;;;;;;;;;;5100667;27;20070;-87
2022/01/25 10:59:09;;;;;;;0.10;0.10;;;;;;;;;;5117352;27;20559;-87
2022/01/25 11:01:36;;;;;;;0.10;0.10;;;;;;;;;;5100386;27;20077;-87
2022/01/25 11:04:09;;;;;;;2.42;0.25;;;;;;;;;;5100247;27;20043;-87
2022/01/25 11:06:35;;;;;;;0.10;0.10;;;;;;;;;;5100192;27;20036;-87
2022/01/25 11:09:04;;;;;;;0.80;0.20;;;;;;;;;;5083463;27;20039;-87
2022/01/25 11:11:33;;;;;;;0.32;0.30;;;;;;;;;;5100661;27;20071;-87
2022/01/25 11:14:50;;;;;;;0.17;0.10;;;;;;;;;;5083984;27;20089;-87
2022/01/25 11:16:48;;;;;;;0.10;0.10;;;;;;;;;;5117181;27;20553;-88
2022/01/25 11:19:15;;;;;;;0.05;0.05;;;;;;;;;;5117013;27;20482;-87
2022/01/25 11:21:42;;;;;;;0.10;0.10;;;;;;;;;;5083290;27;20077;-87
2022/01/25 11:24:08;;;;;;;0.10;0.10;;;;;;;;;;5083495;27;20092;-87
2022/01/25 11:26:34;;;;;;;0.25;0.25;;;;;;;;;;5099924;27;20430;-87
2022/01/25 11:29:01;;;;;;;0.13;0.10;;;;;;;;;;5083369;27;20035;-87
2022/01/25 11:31:27;;;;;;;0.10;0.10;;;;;;;;;;5099833;27;20434;-87
2022/01/25 11:33:53;;;;;;;0.10;0.10;;;;;;;;;;5099696;27;20050;-87
2022/01/25 11:36:22;;;;;;;0.10;0.10;;;;;;;;;;5100167;27;20508;-87
2022/01/25 11:38:48;;;;;;;0.10;0.10;;;;;;;;;;5100420;27;20051;-87
2022/01/25 11:41:15;;;;;;;0.05;0.05;;;;;;;;;;5083338;27;20363;-87
2022/01/25 11:43:45;;;;;;;0.10;0.10;;;;;;;;;;5116321;27;20095;-87
2022/01/25 11:46:11;;;;;;;0.10;0.10;;;;;;;;;;5099923;27;20505;-87
2022/01/25 11:48:41;;;;;;;0.10;0.10;;;;;;;;;;5099630;27;20067;-87
2022/01/25 11:51:15;;;;;;;0.10;0.10;;;;;;;;;;5099533;27;20126;-87
2022/01/25 11:53:41;;;;;;;0.10;0.10;;;;;;;;;;5099743;27;20039;-87
2022/01/25 11:56:09;;;;;;;0.10;0.10;;;;;;;;;;5099570;27;20031;-87
2022/01/25 11:58:36;;;;;;;0.10;0.10;;;;;;;;;;5082267;27;20118;-87
2022/01/25 12:01:06;;;;;;;0.47;0.47;;;;;;;;;;5099418;27;20426;-87
2022/01/25 12:03:32;;;;;;;0.10;0.10;;;;;;;;;;5082568;27;20096;-87
2022/01/25 12:05:59;;;;;;;0.10;0.10;;;;;;;;;;5099184;27;20035;-87
2022/01/25 12:08:38;;;;;;;0.10;0.10;;;;;;;;;;5099101;27;20050;-87
2022/01/25 12:11:24;;;;;;;0.10;0.10;;;;;;;;;;5116159;27;20046;-87
2022/01/25 12:13:55;;;;;;;0.10;0.10;;;;;;;;;;5099182;27;20392;-87
2022/01/25 12:16:26;;;;;;;0.10;0.10;;;;;;;;;;5099235;27;20039;-88
2022/01/25 12:18:59;;;;;;;0.88;0.30;;;;;;;;;;5098833;27;20109;-87
2022/01/25 12:21:44;;;;;;;0.10;0.10;;;;;;;;;;5098872;27;20482;-87
2022/01/25 12:24:25;;;;;;;0.10;0.10;;;;;;;;;;5098559;27;20039;-87
2022/01/25 12:26:58;;;;;;;0.10;0.10;;;;;;;;;;5099097;27;20066;-86
2022/01/25 12:29:53;;;;;;;0.10;0.10;;;;;;;;;;5082674;27;20092;-86
2022/01/25 12:32:26;;;;;;;0.10;0.10;;;;;;;;;;5078326;27;20080;-87
2022/01/25 12:35:10;;;;;;;0.13;0.13;;;;;;;;;;5099145;27;20047;-87
2022/01/25 12:37:46;;;;;;;0.10;0.10;;;;;;;;;;5115506;27;20047;-87
2022/01/25 12:40:24;;;;;;;0.10;0.10;;;;;;;;;;5115867;27;20446;-87
2022/01/25 12:42:51;;;;;;;0.10;0.10;;;;;;;;;;5115114;27;20057;-90
2022/01/25 12:45:17;;;;;;;0.10;0.10;;;;;;;;;;5081575;27;20108;-85
2022/01/25 12:47:53;;;;;;;0.10;0.10;;;;;;;;;;5098479;27;20047;-84
2022/01/25 12:50:19;;;;;;;0.10;0.10;;;;;;;;;;5115373;27;20117;-84
2022/01/25 12:52:45;;;;;;;0.10;0.10;;;;;;;;;;5115096;27;20490;-84
2022/01/25 12:55:12;;;;;;;0.32;0.10;;;;;;;;;;5098064;27;20107;-87
2022/01/25 12:57:38;;;;;;;0.10;0.10;;;;;;;;;;5081036;27;20035;-86
2022/01/25 13:00:05;;;;;;;0.17;0.17;;;;;;;;;;5098023;27;20096;-86
2022/01/25 13:02:30;;;;;;;0.10;0.10;;;;;;;;;;5114916;27;20119;-86
2022/01/25 13:04:56;;;;;;;0.10;0.10;;;;;;;;;;5115601;27;20473;-86
2022/01/25 13:07:22;;;;;;;0.10;0.10;;;;;;;;;;5098003;27;20035;-86
2022/01/25 13:09:53;;;;;;;0.10;0.10;;;;;;;;;;5097379;27;20035;-86
2022/01/25 13:12:28;;;;;;;0.10;0.10;;;;;;;;;;5098768;27;20043;-85
2022/01/25 13:17:39;;;;;;;0.10;0.10;;;;;;;;;;5114746;27;20055;-86
2022/01/25 13:20:05;;;;;;;0.15;0.15;;;;;;;;;;5114507;27;20047;-86
2022/01/25 13:22:39;;;;;;;0.10;0.10;;;;;;;;;;5080995;27;20378;-85
2022/01/25 13:27:48;;;;;;;0.10;0.10;;;;;;;;;;5098137;27;20042;-86
2022/01/25 13:32:59;;;;;;;0.10;0.10;;;;;;;;;;5132833;27;20043;-89
2022/01/25 13:35:35;;;;;;;0.40;0.40;;;;;;;;;;5097262;28;20091;-87
2022/01/25 13:38:10;;;;;;;0.13;0.10;;;;;;;;;;5081970;27;20043;-87
2022/01/25 13:40:47;;;;;;;0.50;0.50;;;;;;;;;;5097319;28;20039;-86
2022/01/25 13:46:08;;;;;;;0.17;0.17;;;;;;;;;;5098388;28;20047;-86
2022/01/25 13:48:35;;;;;;;0.20;0.20;;;;;;;;;;5114287;28;20084;-87
2022/01/25 13:51:05;;;;;;;0.30;0.30;;;;;;;;;;5080941;28;20054;-86
2022/01/25 13:53:31;;;;;;;0.13;0.13;;;;;;;;;;5080510;28;20078;-87
2022/01/25 13:55:58;;;;;;;0.10;0.10;;;;;;;;;;5080775;28;20043;-87
2022/01/25 13:58:25;;;;;;;0.98;0.22;;;;;;;;;;5114220;28;20046;-86
2022/01/25 14:00:51;;;;;;;0.10;0.10;;;;;;;;;;5097312;28;20046;-89
2022/01/25 14:03:17;;;;;;;0.10;0.10;;;;;;;;;;5097111;28;20043;-86
2022/01/25 14:05:43;;;;;;;0.10;0.10;;;;;;;;;;5080453;28;20061;-86
2022/01/25 14:08:09;;;;;;;0.20;0.20;;;;;;;;;;5097106;28;20126;-89
2022/01/25 14:10:35;;;;;;;0.10;0.10;;;;;;;;;;5080045;28;20048;-87
2022/01/25 14:24:05;;;;;;;0.10;0.10;;;;;;;;;;5102224;27;20156;-87
2022/01/25 14:26:31;;;;;;;0.10;0.10;;;;;;;;;;5083912;27;20039;-87
2022/01/25 14:29:07;;;;;;;0.13;0.13;;;;;;;;;;5100705;27;20368;-87
2022/01/25 14:31:35;;;;;;;0.10;0.10;;;;;;;;;;5101934;27;20040;-86
2022/01/25 14:34:01;;;;;;;0.10;0.10;;;;;;;;;;5100528;27;20039;-86
2022/01/25 14:36:28;;;;;;;0.30;0.30;;;;;;;;;;5100427;27;20130;-86
2022/01/25 14:38:54;;;;;;;0.10;0.10;;;;;;;;;;5100460;27;20046;-88
2022/01/25 14:41:23;;;;;;;0.10;0.10;;;;;;;;;;5100380;27;20493;-88
2022/01/25 14:43:53;;;;;;;0.10;0.10;;;;;;;;;;5083325;27;20224;-87
2022/01/25 14:46:22;;;;;;;0.40;0.30;;;;;;;;;;5117438;27;20409;-85
2022/01/25 14:48:57;;;;;;;0.10;0.10;;;;;;;;;;5100305;27;20035;-86
2022/01/25 14:51:26;;;;;;;0.20;0.20;;;;;;;;;;5100535;27;20035;-86
2022/01/25 14:53:54;;;;;;;0.10;0.10;;;;;;;;;;5099791;27;20067;-86
2022/01/25 14:56:20;;;;;;;0.10;0.10;;;;;;;;;;5100084;27;20031;-86
2022/01/25 15:01:18;;;;;;;0.10;0.10;;;;;;;;;;5101242;27;20432;-87
2022/01/25 15:03:45;;;;;;;0.10;0.10;;;;;;;;;;5099898;27;20066;-89
2022/01/25 15:06:14;;;;;;;0.20;0.20;;;;;;;;;;5100063;27;20039;-88
2022/01/25 15:09:01;;;;;;;0.10;0.10;;;;;;;;;;5099891;27;20389;-88
2022/01/25 15:11:30;;;;;;;0.10;0.10;;;;;;;;;;5151123;27;20042;-88
2022/01/25 15:13:58;;;;;;;0.10;0.10;;;;;;;;;;5083487;27;20126;-87
2022/01/25 15:16:24;;;;;;;0.15;0.15;;;;;;;;;;5100251;27;20428;-88
2022/01/25 15:18:49;;;;;;;0.10;0.10;;;;;;;;;;5083247;27;20086;-87
2022/01/25 15:21:15;;;;;;;0.25;0.25;;;;;;;;;;5083296;27;20478;-87
2022/01/25 15:23:46;;;;;;;0.20;0.20;;;;;;;;;;5099923;27;20549;-86
2022/01/25 15:26:16;;;;;;;0.10;0.10;;;;;;;;;;5100668;27;20043;-86
2022/01/25 15:28:44;;;;;;;0.10;0.10;;;;;;;;;;5083438;27;20084;-86
2022/01/25 15:31:14;;;;;;;0.38;0.15;;;;;;;;;;5083419;27;20039;-87
2022/01/25 15:33:40;;;;;;;0.10;0.10;;;;;;;;;;5097864;27;20035;-87
2022/01/25 15:36:06;;;;;;;0.20;0.20;;;;;;;;;;5082804;27;20043;-87
2022/01/25 15:38:33;;;;;;;0.10;0.10;;;;;;;;;;5082892;27;20058;-87
2022/01/25 15:41:00;;;;;;;0.28;0.20;;;;;;;;;;5083433;27;20070;-88
2022/01/25 15:43:35;;;;;;;0.03;0.03;;;;;;;;;;5099085;27;20260;-87
2022/01/25 15:46:04;;;;;;;0.10;0.10;;;;;;;;;;5083682;27;20051;-87
2022/01/25 15:48:30;;;;;;;0.10;0.10;;;;;;;;;;5083279;27;20031;-87
2022/01/25 15:50:56;;;;;;;0.10;0.10;;;;;;;;;;5116011;27;20058;-88
2022/01/25 15:53:22;;;;;;;0.10;0.10;;;;;;;;;;5099018;27;20045;-86
2022/01/25 15:55:49;;;;;;;0.17;0.17;;;;;;;;;;5099235;27;20039;-87
2022/01/25 15:58:15;;;;;;;0.10;0.10;;;;;;;;;;5099109;27;20042;-88
2022/01/25 16:00:47;;;;;;;0.10;0.10;;;;;;;;;;5082013;27;20051;-87
2022/01/25 16:03:14;;;;;;;0.60;0.53;;;;;;;;;;5100004;27;20489;-87
2022/01/25 16:05:40;;;;;;;0.10;0.10;;;;;;;;;;5116230;27;20312;-88
2022/01/25 16:08:06;;;;;;;0.10;0.10;;;;;;;;;;5099282;27;20121;-87
2022/01/25 16:10:34;;;;;;;0.10;0.10;;;;;;;;;;5115951;27;20043;-88
2022/01/25 16:13:00;;;;;;;1.08;0.70;;;;;;;;;;5081844;27;20066;-87
2022/01/25 16:15:26;;;;;;;0.30;0.30;;;;;;;;;;5116008;27;20481;-87
2022/01/25 16:17:52;;;;;;;0.10;0.10;;;;;;;;;;5117030;27;20058;-86
2022/01/25 16:20:18;;;;;;;0.10;0.10;;;;;;;;;;5098810;27;20130;-88
2022/01/25 16:22:44;;;;;;;0.10;0.10;;;;;;;;;;5098935;27;20038;-85
2022/01/25 16:25:10;;;;;;;0.10;0.10;;;;;;;;;;5098642;27;20122;-86
2022/01/25 16:27:37;;;;;;;0.10;0.10;;;;;;;;;;5115314;27;20083;-86
2022/01/25 16:30:03;;;;;;;0.05;0.05;;;;;;;;;;5098979;27;20138;-86
2022/01/25 16:32:34;;;;;;;0.38;0.22;;;;;;;;;;5098775;27;20112;-86
2022/01/25 16:35:00;;;;;;;0.10;0.10;;;;;;;;;;5082267;27;20047;-86
2022/01/25 16:37:26;;;;;;;0.20;0.20;;;;;;;;;;5098716;27;20039;-88
2022/01/25 16:39:52;;;;;;;0.10;0.10;;;;;;;;;;5097826;27;20233;-86
2022/01/25 16:42:18;;;;;;;0.10;0.10;;;;;;;;;;5114420;27;20050;-85
2022/01/25 16:44:45;;;;;;;0.10;0.10;;;;;;;;;;5114017;27;20051;-85
2022/01/25 16:47:11;;;;;;;0.10;0.10;;;;;;;;;;5098464;27;20043;-86
2022/01/25 16:49:37;;;;;;;0.00;0.00;;;;;;;;;;5115085;27;20068;-86
2022/01/25 16:52:03;;;;;;;0.10;0.10;;;;;;;;;;5098206;27;20075;-87
2022/01/25 16:54:29;;;;;;;0.10;0.10;;;;;;;;;;5114788;27;20135;-87
2022/01/25 16:56:55;;;;;;;0.10;0.10;;;;;;;;;;5098108;27;20104;-86
2022/01/25 16:59:21;;;;;;;0.10;0.10;;;;;;;;;;5098056;27;20486;-86
2022/01/25 17:01:47;;;;;;;0.10;0.10;;;;;;;;;;5114827;27;20043;-86